Oscoda, Michigan
Current Conditions -  °F | °C
As of 12:54 PM on Friday 21 Nov 2014 (Local Time) from KOSC Reporting Station
Scattered Clouds Scattered Clouds  
Wind Chill: -9°   Ceiling: Unl
Heat Index: -3°   Visibility: 10mi
Dew Point: -10°   Wind: 10mph
Humidity: 58%   Direction: 250°WSW
Pressure: 30.35"   Gusts: NA
Location:  44.42°N, 83.33°W
Report Text: KOSC 211754Z AUTO 25009KT 10SM SCT034 M03/M10 A3035 RMK AO2 T10311104
Loading
Personal Weather Stations






























Interactive Weather Map New forecast layout! Learn more

10-Day Weather Forecast

Advertisements
Track Severe Weather on mobile